sensor_id;sensor_type;location;lat;lon;timestamp;temperature;humidity
488;DHT22;16586;48.976;9.584;2022-08-01T00:02:15;21.90;40.50
488;DHT22;16586;48.976;9.584;2022-08-01T00:04:43;21.90;43.20
488;DHT22;16586;48.976;9.584;2022-08-01T00:07:10;21.90;42.40
488;DHT22;16586;48.976;9.584;2022-08-01T00:09:37;21.90;42.00
488;DHT22;16586;48.976;9.584;2022-08-01T00:12:04;21.80;42.50
488;DHT22;16586;48.976;9.584;2022-08-01T00:14:31;21.80;42.10
488;DHT22;16586;48.976;9.584;2022-08-01T00:16:58;21.70;40.90
488;DHT22;16586;48.976;9.584;2022-08-01T00:19:25;22.20;44.00
488;DHT22;16586;48.976;9.584;2022-08-01T00:21:53;21.60;42.40
488;DHT22;16586;48.976;9.584;2022-08-01T00:24:20;21.60;41.30
488;DHT22;16586;48.976;9.584;2022-08-01T00:26:47;21.60;43.00
488;DHT22;16586;48.976;9.584;2022-08-01T00:29:14;21.70;43.60
488;DHT22;16586;48.976;9.584;2022-08-01T00:31:41;21.60;45.10
488;DHT22;16586;48.976;9.584;2022-08-01T00:34:08;20.90;43.10
488;DHT22;16586;48.976;9.584;2022-08-01T00:36:35;21.60;44.50
488;DHT22;16586;48.976;9.584;2022-08-01T00:39:03;21.40;44.80
488;DHT22;16586;48.976;9.584;2022-08-01T00:41:30;22.10;42.90
488;DHT22;16586;48.976;9.584;2022-08-01T00:44:03;21.80;46.00
488;DHT22;16586;48.976;9.584;2022-08-01T00:46:30;21.40;42.90
488;DHT22;16586;48.976;9.584;2022-08-01T00:48:57;21.40;45.40
488;DHT22;16586;48.976;9.584;2022-08-01T00:51:24;21.20;44.20
488;DHT22;16586;48.976;9.584;2022-08-01T00:53:51;21.30;44.30
488;DHT22;16586;48.976;9.584;2022-08-01T00:56:21;21.30;44.60
488;DHT22;16586;48.976;9.584;2022-08-01T00:58:48;21.30;43.20
488;DHT22;16586;48.976;9.584;2022-08-01T01:01:15;21.20;44.10
488;DHT22;16586;48.976;9.584;2022-08-01T01:03:42;21.20;43.90
488;DHT22;16586;48.976;9.584;2022-08-01T01:06:15;21.20;44.00
488;DHT22;16586;48.976;9.584;2022-08-01T01:08:49;21.20;42.80
488;DHT22;16586;48.976;9.584;2022-08-01T01:11:25;21.20;43.30
488;DHT22;16586;48.976;9.584;2022-08-01T01:13:57;20.90;44.20
488;DHT22;16586;48.976;9.584;2022-08-01T01:16:27;21.50;44.90
488;DHT22;16586;48.976;9.584;2022-08-01T01:18:59;21.20;43.20
488;DHT22;16586;48.976;9.584;2022-08-01T01:21:39;21.20;45.00
488;DHT22;16586;48.976;9.584;2022-08-01T01:24:21;21.30;43.10
488;DHT22;16586;48.976;9.584;2022-08-01T01:26:56;21.30;43.00
488;DHT22;16586;48.976;9.584;2022-08-01T01:29:28;21.00;44.10
488;DHT22;16586;48.976;9.584;2022-08-01T01:32:01;21.20;44.50
488;DHT22;16586;48.976;9.584;2022-08-01T01:34:32;21.00;42.80
488;DHT22;16586;48.976;9.584;2022-08-01T01:37:01;21.10;43.50
488;DHT22;16586;48.976;9.584;2022-08-01T01:39:30;20.80;44.80
488;DHT22;16586;48.976;9.584;2022-08-01T01:41:58;21.10;43.50
488;DHT22;16586;48.976;9.584;2022-08-01T01:44:27;21.10;43.40
488;DHT22;16586;48.976;9.584;2022-08-01T01:46:56;21.10;42.00
488;DHT22;16586;48.976;9.584;2022-08-01T01:49:26;21.40;43.20
488;DHT22;16586;48.976;9.584;2022-08-01T01:51:55;21.20;43.90
488;DHT22;16586;48.976;9.584;2022-08-01T01:54:24;21.00;41.90
488;DHT22;16586;48.976;9.584;2022-08-01T01:56:56;21.00;45.10
488;DHT22;16586;48.976;9.584;2022-08-01T01:59:28;21.10;42.90
488;DHT22;16586;48.976;9.584;2022-08-01T02:01:59;20.90;44.60
488;DHT22;16586;48.976;9.584;2022-08-01T02:04:28;20.80;42.60
488;DHT22;16586;48.976;9.584;2022-08-01T02:06:56;20.80;43.70
488;DHT22;16586;48.976;9.584;2022-08-01T02:09:26;20.80;43.70
488;DHT22;16586;48.976;9.584;2022-08-01T02:11:54;20.80;43.20
488;DHT22;16586;48.976;9.584;2022-08-01T02:14:22;20.90;46.50
488;DHT22;16586;48.976;9.584;2022-08-01T02:16:51;20.80;43.60
488;DHT22;16586;48.976;9.584;2022-08-01T02:19:19;20.20;44.70
488;DHT22;16586;48.976;9.584;2022-08-01T02:21:49;20.40;46.10
488;DHT22;16586;48.976;9.584;2022-08-01T02:24:22;20.60;44.40
488;DHT22;16586;48.976;9.584;2022-08-01T02:26:52;20.50;44.40
488;DHT22;16586;48.976;9.584;2022-08-01T02:29:22;20.40;46.20
488;DHT22;16586;48.976;9.584;2022-08-01T02:31:54;20.70;44.70
488;DHT22;16586;48.976;9.584;2022-08-01T02:34:21;20.50;45.20
488;DHT22;16586;48.976;9.584;2022-08-01T02:36:49;20.60;45.70
488;DHT22;16586;48.976;9.584;2022-08-01T02:39:20;20.40;44.80
488;DHT22;16586;48.976;9.584;2022-08-01T02:41:50;20.30;46.00
488;DHT22;16586;48.976;9.584;2022-08-01T02:44:23;20.30;46.00
488;DHT22;16586;48.976;9.584;2022-08-01T02:46:56;20.30;46.20
488;DHT22;16586;48.976;9.584;2022-08-01T02:49:30;20.30;44.30
488;DHT22;16586;48.976;9.584;2022-08-01T02:51:59;20.50;45.60
488;DHT22;16586;48.976;9.584;2022-08-01T02:54:29;20.30;45.30
488;DHT22;16586;48.976;9.584;2022-08-01T02:56:58;20.20;45.20
488;DHT22;16586;48.976;9.584;2022-08-01T02:59:26;20.10;45.70
488;DHT22;16586;48.976;9.584;2022-08-01T03:01:57;20.10;44.60
488;DHT22;16586;48.976;9.584;2022-08-01T03:04:26;20.10;45.90
488;DHT22;16586;48.976;9.584;2022-08-01T03:06:55;20.10;45.00
488;DHT22;16586;48.976;9.584;2022-08-01T03:09:25;20.10;44.90
488;DHT22;16586;48.976;9.584;2022-08-01T03:11:54;20.00;46.30
488;DHT22;16586;48.976;9.584;2022-08-01T03:14:23;20.00;45.70
488;DHT22;16586;48.976;9.584;2022-08-01T03:16:52;20.00;46.10
488;DHT22;16586;48.976;9.584;2022-08-01T03:19:24;20.00;45.50
488;DHT22;16586;48.976;9.584;2022-08-01T03:21:53;20.00;45.60
488;DHT22;16586;48.976;9.584;2022-08-01T03:24:21;20.00;45.70
488;DHT22;16586;48.976;9.584;2022-08-01T03:26:51;19.90;45.30
488;DHT22;16586;48.976;9.584;2022-08-01T03:29:22;20.00;45.40
488;DHT22;16586;48.976;9.584;2022-08-01T03:31:51;20.00;46.20
488;DHT22;16586;48.976;9.584;2022-08-01T03:34:19;20.00;46.20
488;DHT22;16586;48.976;9.584;2022-08-01T03:36:53;19.80;45.50
488;DHT22;16586;48.976;9.584;2022-08-01T03:39:27;19.80;45.70
488;DHT22;16586;48.976;9.584;2022-08-01T03:41:57;20.00;46.70
488;DHT22;16586;48.976;9.584;2022-08-01T03:44:27;19.80;46.50
488;DHT22;16586;48.976;9.584;2022-08-01T03:47:00;19.80;46.90
488;DHT22;16586;48.976;9.584;2022-08-01T03:49:32;19.80;46.90
488;DHT22;16586;48.976;9.584;2022-08-01T03:52:04;19.70;47.20
488;DHT22;16586;48.976;9.584;2022-08-01T03:54:35;19.70;46.10
488;DHT22;16586;48.976;9.584;2022-08-01T03:57:04;19.70;46.10
488;DHT22;16586;48.976;9.584;2022-08-01T03:59:32;19.60;46.40
488;DHT22;16586;48.976;9.584;2022-08-01T04:02:02;19.70;47.40
488;DHT22;16586;48.976;9.584;2022-08-01T04:04:30;19.60;46.90
488;DHT22;16586;48.976;9.584;2022-08-01T04:06:57;19.60;46.60
488;DHT22;16586;48.976;9.584;2022-08-01T04:09:31;19.70;47.40
488;DHT22;16586;48.976;9.584;2022-08-01T04:11:58;19.70;46.40
488;DHT22;16586;48.976;9.584;2022-08-01T04:14:25;19.70;46.90
488;DHT22;16586;48.976;9.584;2022-08-01T04:16:53;19.70;46.90
488;DHT22;16586;48.976;9.584;2022-08-01T04:19:20;19.60;48.00
488;DHT22;16586;48.976;9.584;2022-08-01T04:21:47;19.70;48.20
488;DHT22;16586;48.976;9.584;2022-08-01T04:24:17;19.60;48.70
488;DHT22;16586;48.976;9.584;2022-08-01T04:26:46;19.60;46.80
488;DHT22;16586;48.976;9.584;2022-08-01T04:29:15;19.60;47.10
488;DHT22;16586;48.976;9.584;2022-08-01T04:31:46;19.60;46.80
488;DHT22;16586;48.976;9.584;2022-08-01T04:34:17;19.50;46.80
488;DHT22;16586;48.976;9.584;2022-08-01T04:36:47;19.60;48.00
488;DHT22;16586;48.976;9.584;2022-08-01T04:39:16;19.60;48.00
488;DHT22;16586;48.976;9.584;2022-08-01T04:41:46;19.60;47.70
488;DHT22;16586;48.976;9.584;2022-08-01T04:44:14;19.60;47.70
488;DHT22;16586;48.976;9.584;2022-08-01T04:46:42;19.60;47.90
488;DHT22;16586;48.976;9.584;2022-08-01T04:49:11;19.60;48.20
488;DHT22;16586;48.976;9.584;2022-08-01T04:51:49;19.60;49.40
488;DHT22;16586;48.976;9.584;2022-08-01T04:54:17;19.60;47.30
488;DHT22;16586;48.976;9.584;2022-08-01T04:56:46;19.80;48.20
488;DHT22;16586;48.976;9.584;2022-08-01T04:59:13;19.60;49.60
488;DHT22;16586;48.976;9.584;2022-08-01T05:01:57;19.60;47.60
488;DHT22;16586;48.976;9.584;2022-08-01T05:04:24;19.60;48.90
488;DHT22;16586;48.976;9.584;2022-08-01T05:06:51;19.60;48.80
488;DHT22;16586;48.976;9.584;2022-08-01T05:09:18;19.60;47.80
488;DHT22;16586;48.976;9.584;2022-08-01T05:11:47;19.70;48.70
488;DHT22;16586;48.976;9.584;2022-08-01T05:14:14;19.70;49.80
488;DHT22;16586;48.976;9.584;2022-08-01T05:16:41;19.90;48.20
488;DHT22;16586;48.976;9.584;2022-08-01T05:19:08;19.70;49.80
488;DHT22;16586;48.976;9.584;2022-08-01T05:21:35;19.70;48.90
488;DHT22;16586;48.976;9.584;2022-08-01T05:24:03;19.80;48.30
488;DHT22;16586;48.976;9.584;2022-08-01T05:26:30;20.00;49.20
488;DHT22;16586;48.976;9.584;2022-08-01T05:28:59;20.00;50.00
488;DHT22;16586;48.976;9.584;2022-08-01T05:31:26;19.90;48.30
488;DHT22;16586;48.976;9.584;2022-08-01T05:33:53;19.90;49.50
488;DHT22;16586;48.976;9.584;2022-08-01T05:36:20;20.00;47.90
488;DHT22;16586;48.976;9.584;2022-08-01T05:38:47;20.10;48.20
488;DHT22;16586;48.976;9.584;2022-08-01T05:41:13;20.10;49.30
488;DHT22;16586;48.976;9.584;2022-08-01T05:43:40;20.10;49.30
488;DHT22;16586;48.976;9.584;2022-08-01T05:46:09;20.10;48.50
488;DHT22;16586;48.976;9.584;2022-08-01T05:48:36;20.20;49.80
488;DHT22;16586;48.976;9.584;2022-08-01T05:51:03;20.30;49.70
488;DHT22;16586;48.976;9.584;2022-08-01T05:53:30;20.30;48.50
488;DHT22;16586;48.976;9.584;2022-08-01T05:55:59;20.30;48.50
488;DHT22;16586;48.976;9.584;2022-08-01T05:58:27;20.50;50.00
488;DHT22;16586;48.976;9.584;2022-08-01T06:00:54;20.30;48.80
488;DHT22;16586;48.976;9.584;2022-08-01T06:03:23;20.70;48.80
488;DHT22;16586;48.976;9.584;2022-08-01T06:05:51;20.90;48.90
488;DHT22;16586;48.976;9.584;2022-08-01T06:08:18;20.90;48.90
488;DHT22;16586;48.976;9.584;2022-08-01T06:10:45;20.70;47.60
488;DHT22;16586;48.976;9.584;2022-08-01T06:13:12;21.20;49.20
488;DHT22;16586;48.976;9.584;2022-08-01T06:15:39;21.10;47.60
488;DHT22;16586;48.976;9.584;2022-08-01T06:18:06;21.40;47.60
488;DHT22;16586;48.976;9.584;2022-08-01T06:20:34;21.50;47.20
488;DHT22;16586;48.976;9.584;2022-08-01T06:23:01;21.60;46.80
488;DHT22;16586;48.976;9.584;2022-08-01T06:25:28;21.70;48.20
488;DHT22;16586;48.976;9.584;2022-08-01T06:27:55;21.50;47.00
488;DHT22;16586;48.976;9.584;2022-08-01T06:30:22;21.90;47.00
488;DHT22;16586;48.976;9.584;2022-08-01T06:32:49;22.00;47.30
488;DHT22;16586;48.976;9.584;2022-08-01T06:35:16;22.00;45.80
488;DHT22;16586;48.976;9.584;2022-08-01T06:37:44;22.40;47.50
488;DHT22;16586;48.976;9.584;2022-08-01T06:40:13;22.20;45.60
488;DHT22;16586;48.976;9.584;2022-08-01T06:42:40;22.30;47.90
488;DHT22;16586;48.976;9.584;2022-08-01T06:45:09;22.70;45.90
488;DHT22;16586;48.976;9.584;2022-08-01T06:47:36;22.50;45.00
488;DHT22;16586;48.976;9.584;2022-08-01T06:50:04;22.60;43.90
488;DHT22;16586;48.976;9.584;2022-08-01T06:52:31;22.70;45.10
488;DHT22;16586;48.976;9.584;2022-08-01T06:54:59;22.70;45.00
488;DHT22;16586;48.976;9.584;2022-08-01T06:57:26;23.80;46.60
488;DHT22;16586;48.976;9.584;2022-08-01T06:59:53;22.80;46.60
488;DHT22;16586;48.976;9.584;2022-08-01T07:02:20;22.80;45.50
488;DHT22;16586;48.976;9.584;2022-08-01T07:04:47;22.80;45.60
488;DHT22;16586;48.976;9.584;2022-08-01T07:07:14;22.80;45.20
488;DHT22;16586;48.976;9.584;2022-08-01T07:09:41;22.90;44.80
488;DHT22;16586;48.976;9.584;2022-08-01T07:12:10;22.80;44.50
488;DHT22;16586;48.976;9.584;2022-08-01T07:14:37;23.00;45.80
488;DHT22;16586;48.976;9.584;2022-08-01T07:17:04;22.60;43.80
488;DHT22;16586;48.976;9.584;2022-08-01T07:19:31;22.90;44.70
488;DHT22;16586;48.976;9.584;2022-08-01T07:21:59;23.00;45.30
488;DHT22;16586;48.976;9.584;2022-08-01T07:24:25;23.10;44.60
488;DHT22;16586;48.976;9.584;2022-08-01T07:26:54;23.30;45.10
488;DHT22;16586;48.976;9.584;2022-08-01T07:29:25;23.70;45.20
488;DHT22;16586;48.976;9.584;2022-08-01T07:31:52;23.60;44.70
488;DHT22;16586;48.976;9.584;2022-08-01T07:34:19;23.00;45.60
488;DHT22;16586;48.976;9.584;2022-08-01T07:36:46;23.10;45.00
488;DHT22;16586;48.976;9.584;2022-08-01T07:39:13;23.30;46.50
488;DHT22;16586;48.976;9.584;2022-08-01T07:41:40;23.60;44.20
488;DHT22;16586;48.976;9.584;2022-08-01T07:44:07;23.50;46.30
488;DHT22;16586;48.976;9.584;2022-08-01T07:46:35;24.10;44.80
488;DHT22;16586;48.976;9.584;2022-08-01T07:49:02;23.40;43.50
488;DHT22;16586;48.976;9.584;2022-08-01T07:51:29;23.70;42.90
488;DHT22;16586;48.976;9.584;2022-08-01T07:53:56;23.60;44.80
488;DHT22;16586;48.976;9.584;2022-08-01T07:56:23;22.60;42.00
488;DHT22;16586;48.976;9.584;2022-08-01T07:58:51;23.60;42.60
488;DHT22;16586;48.976;9.584;2022-08-01T08:01:18;23.80;42.20
488;DHT22;16586;48.976;9.584;2022-08-01T08:03:46;24.50;43.50
488;DHT22;16586;48.976;9.584;2022-08-01T08:06:13;23.80;42.50
488;DHT22;16586;48.976;9.584;2022-08-01T08:08:40;23.90;44.60
488;DHT22;16586;48.976;9.584;2022-08-01T08:11:07;23.00;41.60
488;DHT22;16586;48.976;9.584;2022-08-01T08:13:34;23.90;44.50
488;DHT22;16586;48.976;9.584;2022-08-01T08:16:01;23.90;42.20
488;DHT22;16586;48.976;9.584;2022-08-01T08:18:28;24.10;41.80
488;DHT22;16586;48.976;9.584;2022-08-01T08:20:56;24.30;41.40
488;DHT22;16586;48.976;9.584;2022-08-01T08:23:23;24.50;43.60
488;DHT22;16586;48.976;9.584;2022-08-01T08:26:07;24.50;40.70
488;DHT22;16586;48.976;9.584;2022-08-01T08:28:34;24.60;41.00
488;DHT22;16586;48.976;9.584;2022-08-01T08:31:01;24.80;40.30
488;DHT22;16586;48.976;9.584;2022-08-01T08:33:28;24.60;40.20
488;DHT22;16586;48.976;9.584;2022-08-01T08:35:56;25.10;42.30
488;DHT22;16586;48.976;9.584;2022-08-01T08:38:23;26.70;41.40
488;DHT22;16586;48.976;9.584;2022-08-01T08:40:52;25.30;40.00
488;DHT22;16586;48.976;9.584;2022-08-01T08:43:20;25.30;41.00
488;DHT22;16586;48.976;9.584;2022-08-01T08:45:48;25.30;40.00
488;DHT22;16586;48.976;9.584;2022-08-01T08:48:16;25.40;40.20
488;DHT22;16586;48.976;9.584;2022-08-01T08:50:45;25.30;39.90
488;DHT22;16586;48.976;9.584;2022-08-01T08:53:16;25.50;39.90
488;DHT22;16586;48.976;9.584;2022-08-01T08:55:45;25.50;38.40
488;DHT22;16586;48.976;9.584;2022-08-01T08:58:13;25.50;38.40
488;DHT22;16586;48.976;9.584;2022-08-01T09:00:41;25.80;39.20
488;DHT22;16586;48.976;9.584;2022-08-01T09:03:08;25.60;40.00
488;DHT22;16586;48.976;9.584;2022-08-01T09:05:35;25.70;38.60
488;DHT22;16586;48.976;9.584;2022-08-01T09:08:06;26.00;40.20
488;DHT22;16586;48.976;9.584;2022-08-01T09:10:35;26.10;38.80
488;DHT22;16586;48.976;9.584;2022-08-01T09:13:03;26.00;38.50
488;DHT22;16586;48.976;9.584;2022-08-01T09:15:41;26.10;38.40
488;DHT22;16586;48.976;9.584;2022-08-01T09:18:26;26.10;37.70
488;DHT22;16586;48.976;9.584;2022-08-01T09:21:10;26.10;37.60
488;DHT22;16586;48.976;9.584;2022-08-01T09:23:39;25.90;37.30
488;DHT22;16586;48.976;9.584;2022-08-01T09:26:09;25.70;37.20
488;DHT22;16586;48.976;9.584;2022-08-01T09:28:37;25.30;37.10
488;DHT22;16586;48.976;9.584;2022-08-01T09:31:09;25.90;37.60
488;DHT22;16586;48.976;9.584;2022-08-01T09:33:50;25.90;36.70
488;DHT22;16586;48.976;9.584;2022-08-01T09:36:18;26.10;36.80
488;DHT22;16586;48.976;9.584;2022-08-01T09:38:45;26.30;36.80
488;DHT22;16586;48.976;9.584;2022-08-01T09:41:13;26.20;36.90
488;DHT22;16586;48.976;9.584;2022-08-01T09:43:48;26.20;37.10
488;DHT22;16586;48.976;9.584;2022-08-01T09:46:15;26.20;37.80
488;DHT22;16586;48.976;9.584;2022-08-01T09:48:55;26.30;37.00
488;DHT22;16586;48.976;9.584;2022-08-01T09:51:31;26.40;37.80
488;DHT22;16586;48.976;9.584;2022-08-01T09:54:01;26.70;37.40
488;DHT22;16586;48.976;9.584;2022-08-01T09:56:37;26.60;36.60
488;DHT22;16586;48.976;9.584;2022-08-01T09:59:05;26.50;35.80
488;DHT22;16586;48.976;9.584;2022-08-01T10:01:44;26.60;36.00
488;DHT22;16586;48.976;9.584;2022-08-01T10:04:13;26.70;36.10
488;DHT22;16586;48.976;9.584;2022-08-01T10:06:42;26.60;35.00
488;DHT22;16586;48.976;9.584;2022-08-01T10:09:10;26.70;36.30
488;DHT22;16586;48.976;9.584;2022-08-01T10:11:41;27.10;36.00
488;DHT22;16586;48.976;9.584;2022-08-01T10:14:08;27.20;35.90
488;DHT22;16586;48.976;9.584;2022-08-01T10:16:36;27.10;34.80
488;DHT22;16586;48.976;9.584;2022-08-01T10:19:05;26.80;34.50
488;DHT22;16586;48.976;9.584;2022-08-01T10:21:33;27.10;34.30
488;DHT22;16586;48.976;9.584;2022-08-01T10:24:02;27.40;33.20
488;DHT22;16586;48.976;9.584;2022-08-01T10:26:32;27.10;33.80
488;DHT22;16586;48.976;9.584;2022-08-01T10:29:01;27.30;33.60
488;DHT22;16586;48.976;9.584;2022-08-01T10:31:29;27.30;33.40
488;DHT22;16586;48.976;9.584;2022-08-01T10:33:58;27.50;33.70
488;DHT22;16586;48.976;9.584;2022-08-01T10:36:26;27.60;32.50
488;DHT22;16586;48.976;9.584;2022-08-01T10:38:54;27.80;33.20
488;DHT22;16586;48.976;9.584;2022-08-01T10:41:21;27.90;32.90
488;DHT22;16586;48.976;9.584;2022-08-01T10:43:48;27.70;32.00
488;DHT22;16586;48.976;9.584;2022-08-01T10:46:19;27.50;31.80
488;DHT22;16586;48.976;9.584;2022-08-01T10:48:53;27.40;32.60
488;DHT22;16586;48.976;9.584;2022-08-01T10:51:21;27.60;33.70
488;DHT22;16586;48.976;9.584;2022-08-01T10:53:51;27.90;33.10
488;DHT22;16586;48.976;9.584;2022-08-01T10:56:18;28.00;31.90
488;DHT22;16586;48.976;9.584;2022-08-01T10:58:47;28.30;32.40
488;DHT22;16586;48.976;9.584;2022-08-01T11:01:20;28.50;30.60
488;DHT22;16586;48.976;9.584;2022-08-01T11:04:01;28.70;30.40
488;DHT22;16586;48.976;9.584;2022-08-01T11:09:24;29.10;29.60
488;DHT22;16586;48.976;9.584;2022-08-01T11:12:04;29.00;29.90
488;DHT22;16586;48.976;9.584;2022-08-01T11:14:33;29.40;29.20
488;DHT22;16586;48.976;9.584;2022-08-01T11:17:33;29.50;28.10
488;DHT22;16586;48.976;9.584;2022-08-01T11:20:05;29.40;28.70
488;DHT22;16586;48.976;9.584;2022-08-01T11:22:35;29.60;28.80
488;DHT22;16586;48.976;9.584;2022-08-01T11:25:22;29.50;29.10
488;DHT22;16586;48.976;9.584;2022-08-01T11:27:48;29.20;29.00
488;DHT22;16586;48.976;9.584;2022-08-01T11:30:35;29.00;28.10
488;DHT22;16586;48.976;9.584;2022-08-01T11:33:04;29.00;29.00
488;DHT22;16586;48.976;9.584;2022-08-01T11:35:32;28.80;29.70
488;DHT22;16586;48.976;9.584;2022-08-01T11:38:23;31.10;30.00
488;DHT22;16586;48.976;9.584;2022-08-01T11:41:09;28.70;29.00
488;DHT22;16586;48.976;9.584;2022-08-01T11:43:54;28.80;29.70
488;DHT22;16586;48.976;9.584;2022-08-01T11:49:28;28.90;28.80
488;DHT22;16586;48.976;9.584;2022-08-01T11:51:59;28.80;29.00
488;DHT22;16586;48.976;9.584;2022-08-01T11:54:31;28.60;28.90
488;DHT22;16586;48.976;9.584;2022-08-01T11:57:00;28.80;29.80
488;DHT22;16586;48.976;9.584;2022-08-01T11:59:27;28.70;27.70
488;DHT22;16586;48.976;9.584;2022-08-01T12:01:55;28.80;28.60
488;DHT22;16586;48.976;9.584;2022-08-01T12:04:21;28.70;28.70
488;DHT22;16586;48.976;9.584;2022-08-01T12:06:50;28.70;29.70
488;DHT22;16586;48.976;9.584;2022-08-01T12:09:21;28.50;29.20
488;DHT22;16586;48.976;9.584;2022-08-01T12:11:49;28.50;28.80
488;DHT22;16586;48.976;9.584;2022-08-01T12:14:17;28.30;28.20
488;DHT22;16586;48.976;9.584;2022-08-01T12:16:54;28.50;28.70
488;DHT22;16586;48.976;9.584;2022-08-01T12:19:22;29.80;28.80
488;DHT22;16586;48.976;9.584;2022-08-01T12:22:10;28.40;28.00
488;DHT22;16586;48.976;9.584;2022-08-01T12:24:39;28.50;28.50
488;DHT22;16586;48.976;9.584;2022-08-01T12:27:07;28.30;29.30
488;DHT22;16586;48.976;9.584;2022-08-01T12:29:37;28.30;28.80
488;DHT22;16586;48.976;9.584;2022-08-01T12:32:19;28.40;29.40
488;DHT22;16586;48.976;9.584;2022-08-01T12:34:47;28.50;29.60
488;DHT22;16586;48.976;9.584;2022-08-01T12:37:16;28.50;30.00
488;DHT22;16586;48.976;9.584;2022-08-01T12:39:44;28.50;29.10
488;DHT22;16586;48.976;9.584;2022-08-01T12:42:11;28.50;29.10
488;DHT22;16586;48.976;9.584;2022-08-01T12:44:40;28.50;29.10
488;DHT22;16586;48.976;9.584;2022-08-01T12:47:07;28.50;29.60
488;DHT22;16586;48.976;9.584;2022-08-01T12:49:35;28.60;29.40
488;DHT22;16586;48.976;9.584;2022-08-01T12:52:03;28.50;29.00
488;DHT22;16586;48.976;9.584;2022-08-01T12:55:02;28.70;30.00
488;DHT22;16586;48.976;9.584;2022-08-01T12:57:29;28.50;28.50
488;DHT22;16586;48.976;9.584;2022-08-01T13:00:24;28.50;29.00
488;DHT22;16586;48.976;9.584;2022-08-01T13:03:03;28.60;28.70
488;DHT22;16586;48.976;9.584;2022-08-01T13:05:44;28.60;27.60
488;DHT22;16586;48.976;9.584;2022-08-01T13:08:12;28.60;28.10
488;DHT22;16586;48.976;9.584;2022-08-01T13:10:41;28.50;28.00
488;DHT22;16586;48.976;9.584;2022-08-01T13:13:09;28.50;28.60
488;DHT22;16586;48.976;9.584;2022-08-01T13:15:37;28.60;28.50
488;DHT22;16586;48.976;9.584;2022-08-01T13:18:23;28.80;28.30
488;DHT22;16586;48.976;9.584;2022-08-01T13:20:50;28.80;28.70
488;DHT22;16586;48.976;9.584;2022-08-01T13:23:18;28.90;28.70
488;DHT22;16586;48.976;9.584;2022-08-01T13:25:52;28.90;27.90
488;DHT22;16586;48.976;9.584;2022-08-01T13:28:21;29.10;27.50
488;DHT22;16586;48.976;9.584;2022-08-01T13:30:53;29.30;28.10
488;DHT22;16586;48.976;9.584;2022-08-01T13:33:20;29.10;27.40
488;DHT22;16586;48.976;9.584;2022-08-01T13:35:49;29.10;29.50
488;DHT22;16586;48.976;9.584;2022-08-01T13:38:17;29.10;27.60
488;DHT22;16586;48.976;9.584;2022-08-01T13:40:44;29.10;27.90
488;DHT22;16586;48.976;9.584;2022-08-01T13:43:12;29.00;28.10
488;DHT22;16586;48.976;9.584;2022-08-01T13:45:40;28.90;29.00
488;DHT22;16586;48.976;9.584;2022-08-01T13:48:07;28.90;27.60
488;DHT22;16586;48.976;9.584;2022-08-01T13:50:34;28.90;27.20
488;DHT22;16586;48.976;9.584;2022-08-01T13:53:01;28.90;28.80
488;DHT22;16586;48.976;9.584;2022-08-01T13:55:28;29.00;29.10
488;DHT22;16586;48.976;9.584;2022-08-01T13:57:55;29.10;28.90
488;DHT22;16586;48.976;9.584;2022-08-01T14:00:23;29.10;28.60
488;DHT22;16586;48.976;9.584;2022-08-01T14:02:50;29.00;26.50
488;DHT22;16586;48.976;9.584;2022-08-01T14:05:17;29.20;27.90
488;DHT22;16586;48.976;9.584;2022-08-01T14:07:44;29.30;28.10
488;DHT22;16586;48.976;9.584;2022-08-01T14:10:11;29.30;28.50
488;DHT22;16586;48.976;9.584;2022-08-01T14:12:38;29.40;28.10
488;DHT22;16586;48.976;9.584;2022-08-01T14:15:06;29.70;27.10
488;DHT22;16586;48.976;9.584;2022-08-01T14:17:35;30.30;25.80
488;DHT22;16586;48.976;9.584;2022-08-01T14:20:03;30.70;24.80
488;DHT22;16586;48.976;9.584;2022-08-01T14:22:31;31.20;25.30
488;DHT22;16586;48.976;9.584;2022-08-01T14:24:57;31.30;24.10
488;DHT22;16586;48.976;9.584;2022-08-01T14:27:25;31.50;25.10
488;DHT22;16586;48.976;9.584;2022-08-01T14:29:52;31.40;24.90
488;DHT22;16586;48.976;9.584;2022-08-01T14:32:19;31.80;23.70
488;DHT22;16586;48.976;9.584;2022-08-01T14:34:47;31.30;25.10
488;DHT22;16586;48.976;9.584;2022-08-01T14:37:14;30.70;24.00
488;DHT22;16586;48.976;9.584;2022-08-01T14:39:41;30.90;24.80
488;DHT22;16586;48.976;9.584;2022-08-01T14:42:07;30.70;25.90
488;DHT22;16586;48.976;9.584;2022-08-01T14:44:34;30.50;26.00
488;DHT22;16586;48.976;9.584;2022-08-01T14:47:01;30.40;25.80
488;DHT22;16586;48.976;9.584;2022-08-01T14:49:28;30.30;26.90
488;DHT22;16586;48.976;9.584;2022-08-01T14:51:56;30.30;25.80
488;DHT22;16586;48.976;9.584;2022-08-01T14:54:23;30.20;25.70
488;DHT22;16586;48.976;9.584;2022-08-01T14:56:50;30.10;25.30
488;DHT22;16586;48.976;9.584;2022-08-01T14:59:18;30.40;25.40
488;DHT22;16586;48.976;9.584;2022-08-01T15:01:45;30.40;24.60
488;DHT22;16586;48.976;9.584;2022-08-01T15:04:12;30.40;26.00
488;DHT22;16586;48.976;9.584;2022-08-01T15:06:39;30.30;25.40
488;DHT22;16586;48.976;9.584;2022-08-01T15:09:08;30.30;25.10
488;DHT22;16586;48.976;9.584;2022-08-01T15:11:34;30.40;26.20
488;DHT22;16586;48.976;9.584;2022-08-01T15:14:02;29.00;24.80
488;DHT22;16586;48.976;9.584;2022-08-01T15:16:46;30.60;25.30
488;DHT22;16586;48.976;9.584;2022-08-01T15:19:13;30.70;24.50
488;DHT22;16586;48.976;9.584;2022-08-01T15:21:40;31.00;24.50
488;DHT22;16586;48.976;9.584;2022-08-01T15:24:09;31.40;25.00
488;DHT22;16586;48.976;9.584;2022-08-01T15:26:36;31.60;24.90
488;DHT22;16586;48.976;9.584;2022-08-01T15:29:03;31.90;24.60
488;DHT22;16586;48.976;9.584;2022-08-01T15:31:29;32.00;24.10
488;DHT22;16586;48.976;9.584;2022-08-01T15:33:57;32.20;23.10
488;DHT22;16586;48.976;9.584;2022-08-01T15:36:25;32.30;24.00
488;DHT22;16586;48.976;9.584;2022-08-01T15:38:54;32.20;23.00
488;DHT22;16586;48.976;9.584;2022-08-01T15:41:22;32.10;23.00
488;DHT22;16586;48.976;9.584;2022-08-01T15:43:49;31.80;22.80
488;DHT22;16586;48.976;9.584;2022-08-01T15:46:16;31.50;23.10
488;DHT22;16586;48.976;9.584;2022-08-01T15:48:43;30.70;22.70
488;DHT22;16586;48.976;9.584;2022-08-01T15:51:10;31.40;23.00
488;DHT22;16586;48.976;9.584;2022-08-01T15:53:37;31.30;23.30
488;DHT22;16586;48.976;9.584;2022-08-01T15:56:04;31.70;23.20
488;DHT22;16586;48.976;9.584;2022-08-01T15:58:33;31.50;25.20
488;DHT22;16586;48.976;9.584;2022-08-01T16:01:00;31.40;22.90
488;DHT22;16586;48.976;9.584;2022-08-01T16:03:26;31.30;23.00
488;DHT22;16586;48.976;9.584;2022-08-01T16:05:54;31.20;25.40
488;DHT22;16586;48.976;9.584;2022-08-01T16:08:20;30.70;23.20
488;DHT22;16586;48.976;9.584;2022-08-01T16:10:47;30.60;24.40
488;DHT22;16586;48.976;9.584;2022-08-01T16:13:15;30.40;25.10
488;DHT22;16586;48.976;9.584;2022-08-01T16:15:44;30.10;25.80
488;DHT22;16586;48.976;9.584;2022-08-01T16:18:11;30.20;25.90
488;DHT22;16586;48.976;9.584;2022-08-01T16:20:39;30.00;25.30
488;DHT22;16586;48.976;9.584;2022-08-01T16:23:06;29.80;26.30